sensor_id;sensor_type;location;lat;lon;timestamp;P1;durP1;ratioP1;P2;durP2;ratioP2
13720;SDS011;6932;51.438;5.470;2023-03-03T00:01:40;19.10;;;11.80;;
13720;SDS011;6932;51.438;5.470;2023-03-03T00:04:05;19.63;;;12.00;;
13720;SDS011;6932;51.438;5.470;2023-03-03T00:06:31;18.73;;;11.30;;
13720;SDS011;6932;51.438;5.470;2023-03-03T00:08:57;19.60;;;12.17;;
13720;SDS011;6932;51.438;5.470;2023-03-03T00:11:23;18.87;;;11.83;;
13720;SDS011;6932;51.438;5.470;2023-03-03T00:13:50;18.37;;;11.30;;
13720;SDS011;6932;51.438;5.470;2023-03-03T00:18:59;18.03;;;11.77;;
13720;SDS011;6932;51.438;5.470;2023-03-03T00:21:27;18.63;;;11.77;;
13720;SDS011;6932;51.438;5.470;2023-03-03T00:23:58;18.73;;;12.20;;
13720;SDS011;6932;51.438;5.470;2023-03-03T00:26:38;18.13;;;11.93;;
13720;SDS011;6932;51.438;5.470;2023-03-03T00:31:55;20.00;;;12.27;;
13720;SDS011;6932;51.438;5.470;2023-03-03T00:34:36;21.17;;;12.40;;
13720;SDS011;6932;51.438;5.470;2023-03-03T00:37:02;19.60;;;12.03;;
13720;SDS011;6932;51.438;5.470;2023-03-03T00:39:35;19.30;;;12.40;;
13720;SDS011;6932;51.438;5.470;2023-03-03T00:42:16;19.77;;;12.53;;
13720;SDS011;6932;51.438;5.470;2023-03-03T00:47:49;19.27;;;12.03;;
13720;SDS011;6932;51.438;5.470;2023-03-03T00:50:36;20.47;;;12.57;;
13720;SDS011;6932;51.438;5.470;2023-03-03T00:53:14;19.83;;;12.37;;
13720;SDS011;6932;51.438;5.470;2023-03-03T00:55:42;21.33;;;12.60;;
13720;SDS011;6932;51.438;5.470;2023-03-03T00:58:10;19.40;;;12.03;;
13720;SDS011;6932;51.438;5.470;2023-03-03T01:00:36;19.80;;;12.37;;
13720;SDS011;6932;51.438;5.470;2023-03-03T01:03:04;21.10;;;13.03;;
13720;SDS011;6932;51.438;5.470;2023-03-03T01:05:33;18.37;;;11.37;;
13720;SDS011;6932;51.438;5.470;2023-03-03T01:08:00;19.73;;;12.00;;
13720;SDS011;6932;51.438;5.470;2023-03-03T01:10:28;20.73;;;12.43;;
13720;SDS011;6932;51.438;5.470;2023-03-03T01:12:57;18.90;;;12.10;;
13720;SDS011;6932;51.438;5.470;2023-03-03T01:15:23;20.27;;;12.07;;
13720;SDS011;6932;51.438;5.470;2023-03-03T01:17:49;18.17;;;11.30;;
13720;SDS011;6932;51.438;5.470;2023-03-03T01:20:15;20.17;;;12.03;;
13720;SDS011;6932;51.438;5.470;2023-03-03T01:22:43;20.33;;;12.00;;
13720;SDS011;6932;51.438;5.470;2023-03-03T01:25:09;21.30;;;12.40;;
13720;SDS011;6932;51.438;5.470;2023-03-03T01:27:35;20.23;;;12.50;;
13720;SDS011;6932;51.438;5.470;2023-03-03T01:30:02;19.07;;;11.87;;
13720;SDS011;6932;51.438;5.470;2023-03-03T01:32:30;19.30;;;11.53;;
13720;SDS011;6932;51.438;5.470;2023-03-03T01:34:56;19.43;;;11.93;;
13720;SDS011;6932;51.438;5.470;2023-03-03T01:37:22;19.67;;;11.87;;
13720;SDS011;6932;51.438;5.470;2023-03-03T01:39:49;20.37;;;12.97;;
13720;SDS011;6932;51.438;5.470;2023-03-03T01:42:16;20.70;;;12.10;;
13720;SDS011;6932;51.438;5.470;2023-03-03T01:44:43;19.27;;;12.13;;
13720;SDS011;6932;51.438;5.470;2023-03-03T01:47:10;18.97;;;11.47;;
13720;SDS011;6932;51.438;5.470;2023-03-03T01:49:43;19.40;;;12.43;;
13720;SDS011;6932;51.438;5.470;2023-03-03T01:52:28;19.10;;;11.67;;
13720;SDS011;6932;51.438;5.470;2023-03-03T01:55:04;19.53;;;11.73;;
13720;SDS011;6932;51.438;5.470;2023-03-03T01:57:45;20.30;;;12.27;;
13720;SDS011;6932;51.438;5.470;2023-03-03T02:00:18;19.83;;;12.03;;
13720;SDS011;6932;51.438;5.470;2023-03-03T02:02:44;20.30;;;12.03;;
13720;SDS011;6932;51.438;5.470;2023-03-03T02:05:11;19.57;;;11.77;;
13720;SDS011;6932;51.438;5.470;2023-03-03T02:07:38;19.67;;;12.30;;
13720;SDS011;6932;51.438;5.470;2023-03-03T02:10:06;19.27;;;11.80;;
13720;SDS011;6932;51.438;5.470;2023-03-03T02:12:41;21.80;;;13.67;;
13720;SDS011;6932;51.438;5.470;2023-03-03T02:15:45;19.53;;;11.40;;
13720;SDS011;6932;51.438;5.470;2023-03-03T02:18:13;19.40;;;11.27;;
13720;SDS011;6932;51.438;5.470;2023-03-03T02:26:52;19.40;;;11.33;;
13720;SDS011;6932;51.438;5.470;2023-03-03T02:29:19;19.60;;;11.57;;
13720;SDS011;6932;51.438;5.470;2023-03-03T02:31:45;19.63;;;11.43;;
13720;SDS011;6932;51.438;5.470;2023-03-03T02:34:11;19.63;;;11.70;;
13720;SDS011;6932;51.438;5.470;2023-03-03T02:36:37;19.17;;;11.07;;
13720;SDS011;6932;51.438;5.470;2023-03-03T02:39:36;18.53;;;10.80;;
13720;SDS011;6932;51.438;5.470;2023-03-03T02:44:42;18.20;;;10.73;;
13720;SDS011;6932;51.438;5.470;2023-03-03T02:47:09;18.00;;;10.63;;
13720;SDS011;6932;51.438;5.470;2023-03-03T02:49:35;19.13;;;11.20;;
13720;SDS011;6932;51.438;5.470;2023-03-03T02:52:02;18.43;;;10.83;;
13720;SDS011;6932;51.438;5.470;2023-03-03T02:54:33;18.40;;;10.93;;
13720;SDS011;6932;51.438;5.470;2023-03-03T02:57:00;18.00;;;11.13;;
13720;SDS011;6932;51.438;5.470;2023-03-03T02:59:26;18.50;;;11.50;;
13720;SDS011;6932;51.438;5.470;2023-03-03T03:01:52;20.03;;;10.97;;
13720;SDS011;6932;51.438;5.470;2023-03-03T03:04:22;19.30;;;10.93;;
13720;SDS011;6932;51.438;5.470;2023-03-03T03:06:51;18.80;;;11.10;;
13720;SDS011;6932;51.438;5.470;2023-03-03T03:09:18;18.10;;;10.47;;
13720;SDS011;6932;51.438;5.470;2023-03-03T03:11:46;18.40;;;10.17;;
13720;SDS011;6932;51.438;5.470;2023-03-03T03:14:12;19.27;;;11.13;;
13720;SDS011;6932;51.438;5.470;2023-03-03T03:16:38;18.83;;;10.73;;
13720;SDS011;6932;51.438;5.470;2023-03-03T03:19:05;17.63;;;10.50;;
13720;SDS011;6932;51.438;5.470;2023-03-03T03:21:31;17.80;;;10.57;;
13720;SDS011;6932;51.438;5.470;2023-03-03T03:23:58;18.40;;;10.53;;
13720;SDS011;6932;51.438;5.470;2023-03-03T03:26:24;18.10;;;10.30;;
13720;SDS011;6932;51.438;5.470;2023-03-03T03:28:50;18.60;;;10.60;;
13720;SDS011;6932;51.438;5.470;2023-03-03T03:31:17;19.57;;;11.07;;
13720;SDS011;6932;51.438;5.470;2023-03-03T03:33:57;19.50;;;10.40;;
13720;SDS011;6932;51.438;5.470;2023-03-03T03:36:24;18.33;;;10.83;;
13720;SDS011;6932;51.438;5.470;2023-03-03T03:38:52;17.80;;;10.70;;
13720;SDS011;6932;51.438;5.470;2023-03-03T03:41:18;19.30;;;10.97;;
13720;SDS011;6932;51.438;5.470;2023-03-03T03:43:43;18.07;;;10.50;;
13720;SDS011;6932;51.438;5.470;2023-03-03T03:46:09;17.43;;;10.37;;
13720;SDS011;6932;51.438;5.470;2023-03-03T03:48:35;18.37;;;10.83;;
13720;SDS011;6932;51.438;5.470;2023-03-03T03:51:01;18.37;;;10.77;;
13720;SDS011;6932;51.438;5.470;2023-03-03T03:53:27;19.27;;;11.40;;
13720;SDS011;6932;51.438;5.470;2023-03-03T03:55:53;17.53;;;10.63;;
13720;SDS011;6932;51.438;5.470;2023-03-03T03:58:20;19.37;;;11.17;;
13720;SDS011;6932;51.438;5.470;2023-03-03T04:00:46;18.37;;;10.83;;
13720;SDS011;6932;51.438;5.470;2023-03-03T04:03:12;18.77;;;11.07;;
13720;SDS011;6932;51.438;5.470;2023-03-03T04:05:39;18.97;;;11.50;;
13720;SDS011;6932;51.438;5.470;2023-03-03T04:08:05;18.27;;;10.77;;
13720;SDS011;6932;51.438;5.470;2023-03-03T04:10:31;17.67;;;10.77;;
13720;SDS011;6932;51.438;5.470;2023-03-03T04:12:56;17.63;;;10.53;;
13720;SDS011;6932;51.438;5.470;2023-03-03T04:15:22;18.27;;;10.87;;
13720;SDS011;6932;51.438;5.470;2023-03-03T04:17:48;19.77;;;11.43;;
13720;SDS011;6932;51.438;5.470;2023-03-03T04:20:14;19.07;;;11.17;;
13720;SDS011;6932;51.438;5.470;2023-03-03T04:22:41;19.93;;;11.70;;
13720;SDS011;6932;51.438;5.470;2023-03-03T04:25:08;18.53;;;10.90;;
13720;SDS011;6932;51.438;5.470;2023-03-03T04:27:39;20.63;;;11.67;;
13720;SDS011;6932;51.438;5.470;2023-03-03T04:30:05;19.17;;;11.13;;
13720;SDS011;6932;51.438;5.470;2023-03-03T04:32:32;19.63;;;11.63;;
13720;SDS011;6932;51.438;5.470;2023-03-03T04:34:58;19.83;;;11.00;;
13720;SDS011;6932;51.438;5.470;2023-03-03T04:37:24;20.60;;;11.77;;
13720;SDS011;6932;51.438;5.470;2023-03-03T04:39:50;21.23;;;11.90;;
13720;SDS011;6932;51.438;5.470;2023-03-03T04:42:16;21.00;;;11.47;;
13720;SDS011;6932;51.438;5.470;2023-03-03T04:44:42;20.83;;;12.07;;
13720;SDS011;6932;51.438;5.470;2023-03-03T04:47:08;19.67;;;11.63;;
13720;SDS011;6932;51.438;5.470;2023-03-03T04:49:34;20.17;;;11.70;;
13720;SDS011;6932;51.438;5.470;2023-03-03T04:52:00;20.17;;;12.07;;
13720;SDS011;6932;51.438;5.470;2023-03-03T04:54:25;21.03;;;11.97;;
13720;SDS011;6932;51.438;5.470;2023-03-03T04:56:51;20.67;;;11.93;;
13720;SDS011;6932;51.438;5.470;2023-03-03T04:59:17;21.40;;;12.03;;
13720;SDS011;6932;51.438;5.470;2023-03-03T05:01:43;18.97;;;10.83;;
13720;SDS011;6932;51.438;5.470;2023-03-03T05:04:10;18.93;;;10.77;;
13720;SDS011;6932;51.438;5.470;2023-03-03T05:06:36;19.63;;;11.40;;
13720;SDS011;6932;51.438;5.470;2023-03-03T05:09:02;20.03;;;11.43;;
13720;SDS011;6932;51.438;5.470;2023-03-03T05:11:28;19.00;;;10.93;;
13720;SDS011;6932;51.438;5.470;2023-03-03T05:13:54;20.87;;;12.00;;
13720;SDS011;6932;51.438;5.470;2023-03-03T05:16:20;18.63;;;11.33;;
13720;SDS011;6932;51.438;5.470;2023-03-03T05:18:45;19.57;;;11.13;;
13720;SDS011;6932;51.438;5.470;2023-03-03T05:21:12;20.93;;;12.20;;
13720;SDS011;6932;51.438;5.470;2023-03-03T05:23:38;20.00;;;10.77;;
13720;SDS011;6932;51.438;5.470;2023-03-03T05:29:01;19.07;;;10.97;;
13720;SDS011;6932;51.438;5.470;2023-03-03T05:31:27;19.50;;;11.23;;
13720;SDS011;6932;51.438;5.470;2023-03-03T05:33:53;19.43;;;10.33;;
13720;SDS011;6932;51.438;5.470;2023-03-03T05:36:19;18.20;;;10.23;;
13720;SDS011;6932;51.438;5.470;2023-03-03T05:38:45;18.40;;;9.83;;
13720;SDS011;6932;51.438;5.470;2023-03-03T05:41:11;18.80;;;10.33;;
13720;SDS011;6932;51.438;5.470;2023-03-03T05:43:37;17.23;;;9.60;;
13720;SDS011;6932;51.438;5.470;2023-03-03T05:46:03;17.87;;;10.03;;
13720;SDS011;6932;51.438;5.470;2023-03-03T05:48:29;17.27;;;9.47;;
13720;SDS011;6932;51.438;5.470;2023-03-03T05:50:57;18.53;;;9.93;;
13720;SDS011;6932;51.438;5.470;2023-03-03T05:53:24;17.43;;;9.57;;
13720;SDS011;6932;51.438;5.470;2023-03-03T05:55:52;18.97;;;9.67;;
13720;SDS011;6932;51.438;5.470;2023-03-03T05:58:18;19.20;;;10.47;;
13720;SDS011;6932;51.438;5.470;2023-03-03T06:00:44;18.40;;;9.60;;
13720;SDS011;6932;51.438;5.470;2023-03-03T06:03:10;18.67;;;9.70;;
13720;SDS011;6932;51.438;5.470;2023-03-03T06:05:36;19.83;;;10.50;;
13720;SDS011;6932;51.438;5.470;2023-03-03T06:08:02;19.40;;;10.20;;
13720;SDS011;6932;51.438;5.470;2023-03-03T06:10:27;18.30;;;9.93;;
13720;SDS011;6932;51.438;5.470;2023-03-03T06:12:53;21.07;;;11.23;;
13720;SDS011;6932;51.438;5.470;2023-03-03T06:15:20;18.97;;;10.37;;
13720;SDS011;6932;51.438;5.470;2023-03-03T06:17:47;18.23;;;9.93;;
13720;SDS011;6932;51.438;5.470;2023-03-03T06:20:13;21.10;;;10.83;;
13720;SDS011;6932;51.438;5.470;2023-03-03T06:22:39;20.50;;;11.10;;
13720;SDS011;6932;51.438;5.470;2023-03-03T06:25:05;19.90;;;10.40;;
13720;SDS011;6932;51.438;5.470;2023-03-03T06:27:31;20.33;;;10.30;;
13720;SDS011;6932;51.438;5.470;2023-03-03T06:29:57;20.07;;;10.20;;
13720;SDS011;6932;51.438;5.470;2023-03-03T06:32:23;22.27;;;11.37;;
13720;SDS011;6932;51.438;5.470;2023-03-03T06:34:49;21.73;;;11.27;;
13720;SDS011;6932;51.438;5.470;2023-03-03T06:37:15;20.80;;;11.10;;
13720;SDS011;6932;51.438;5.470;2023-03-03T06:39:41;20.40;;;10.87;;
13720;SDS011;6932;51.438;5.470;2023-03-03T06:42:06;20.40;;;10.87;;
13720;SDS011;6932;51.438;5.470;2023-03-03T06:44:33;19.87;;;10.50;;
13720;SDS011;6932;51.438;5.470;2023-03-03T06:47:00;19.93;;;10.20;;
13720;SDS011;6932;51.438;5.470;2023-03-03T06:49:26;19.97;;;10.77;;
13720;SDS011;6932;51.438;5.470;2023-03-03T06:51:52;17.53;;;10.27;;
13720;SDS011;6932;51.438;5.470;2023-03-03T06:54:23;19.13;;;9.80;;
13720;SDS011;6932;51.438;5.470;2023-03-03T06:56:54;19.33;;;9.80;;
13720;SDS011;6932;51.438;5.470;2023-03-03T06:59:39;19.30;;;10.13;;
13720;SDS011;6932;51.438;5.470;2023-03-03T07:02:11;16.30;;;9.17;;
13720;SDS011;6932;51.438;5.470;2023-03-03T07:04:41;18.43;;;10.17;;
13720;SDS011;6932;51.438;5.470;2023-03-03T07:07:10;19.03;;;9.90;;
13720;SDS011;6932;51.438;5.470;2023-03-03T07:09:53;18.53;;;9.43;;
13720;SDS011;6932;51.438;5.470;2023-03-03T07:12:22;18.50;;;9.70;;
13720;SDS011;6932;51.438;5.470;2023-03-03T07:15:12;18.20;;;9.70;;
13720;SDS011;6932;51.438;5.470;2023-03-03T07:18:00;19.27;;;9.73;;
13720;SDS011;6932;51.438;5.470;2023-03-03T07:20:29;18.33;;;10.20;;
13720;SDS011;6932;51.438;5.470;2023-03-03T07:23:00;19.57;;;10.37;;
13720;SDS011;6932;51.438;5.470;2023-03-03T07:25:48;18.40;;;10.20;;
13720;SDS011;6932;51.438;5.470;2023-03-03T07:28:22;19.73;;;10.43;;
13720;SDS011;6932;51.438;5.470;2023-03-03T07:30:53;17.77;;;9.67;;
13720;SDS011;6932;51.438;5.470;2023-03-03T07:33:26;18.30;;;10.17;;
13720;SDS011;6932;51.438;5.470;2023-03-03T07:36:19;20.13;;;9.73;;
13720;SDS011;6932;51.438;5.470;2023-03-03T07:39:01;19.13;;;10.30;;
13720;SDS011;6932;51.438;5.470;2023-03-03T07:41:42;18.27;;;10.13;;
13720;SDS011;6932;51.438;5.470;2023-03-03T07:44:14;17.37;;;10.23;;
13720;SDS011;6932;51.438;5.470;2023-03-03T07:46:46;17.87;;;9.60;;
13720;SDS011;6932;51.438;5.470;2023-03-03T07:49:28;19.70;;;10.93;;
13720;SDS011;6932;51.438;5.470;2023-03-03T07:54:52;17.20;;;9.50;;
13720;SDS011;6932;51.438;5.470;2023-03-03T07:57:34;19.40;;;11.03;;
13720;SDS011;6932;51.438;5.470;2023-03-03T08:05:41;18.03;;;10.10;;
13720;SDS011;6932;51.438;5.470;2023-03-03T08:13:19;18.27;;;10.30;;
13720;SDS011;6932;51.438;5.470;2023-03-03T08:16:38;18.23;;;10.30;;
13720;SDS011;6932;51.438;5.470;2023-03-03T08:18:46;17.40;;;9.73;;
13720;SDS011;6932;51.438;5.470;2023-03-03T08:21:15;18.30;;;10.03;;
13720;SDS011;6932;51.438;5.470;2023-03-03T08:23:48;18.00;;;10.40;;
13720;SDS011;6932;51.438;5.470;2023-03-03T08:26:16;18.20;;;10.23;;
13720;SDS011;6932;51.438;5.470;2023-03-03T08:28:43;18.70;;;10.70;;
13720;SDS011;6932;51.438;5.470;2023-03-03T08:31:10;16.83;;;9.57;;
13720;SDS011;6932;51.438;5.470;2023-03-03T08:33:36;18.13;;;9.97;;
13720;SDS011;6932;51.438;5.470;2023-03-03T08:36:04;18.30;;;10.37;;
13720;SDS011;6932;51.438;5.470;2023-03-03T08:38:30;18.37;;;10.23;;
13720;SDS011;6932;51.438;5.470;2023-03-03T08:40:56;19.43;;;10.57;;
13720;SDS011;6932;51.438;5.470;2023-03-03T08:43:22;19.33;;;10.53;;
13720;SDS011;6932;51.438;5.470;2023-03-03T08:45:49;18.23;;;10.27;;
13720;SDS011;6932;51.438;5.470;2023-03-03T08:48:18;18.80;;;9.87;;
13720;SDS011;6932;51.438;5.470;2023-03-03T08:50:45;19.60;;;10.77;;
13720;SDS011;6932;51.438;5.470;2023-03-03T08:53:11;18.40;;;10.07;;
13720;SDS011;6932;51.438;5.470;2023-03-03T08:55:39;18.53;;;10.47;;
13720;SDS011;6932;51.438;5.470;2023-03-03T08:58:06;17.67;;;10.07;;
13720;SDS011;6932;51.438;5.470;2023-03-03T09:00:32;17.77;;;10.57;;
13720;SDS011;6932;51.438;5.470;2023-03-03T09:02:59;19.23;;;11.13;;
13720;SDS011;6932;51.438;5.470;2023-03-03T09:05:25;17.30;;;9.73;;
13720;SDS011;6932;51.438;5.470;2023-03-03T09:07:52;17.23;;;9.97;;
13720;SDS011;6932;51.438;5.470;2023-03-03T09:10:20;16.30;;;9.33;;
13720;SDS011;6932;51.438;5.470;2023-03-03T09:12:52;19.17;;;10.43;;
13720;SDS011;6932;51.438;5.470;2023-03-03T09:17:50;16.60;;;9.53;;
13720;SDS011;6932;51.438;5.470;2023-03-03T09:26:05;15.10;;;8.50;;
13720;SDS011;6932;51.438;5.470;2023-03-03T09:31:55;16.33;;;8.80;;
13720;SDS011;6932;51.438;5.470;2023-03-03T09:34:45;16.00;;;8.67;;
13720;SDS011;6932;51.438;5.470;2023-03-03T09:45:49;16.20;;;8.67;;
13720;SDS011;6932;51.438;5.470;2023-03-03T09:48:43;15.33;;;7.80;;
13720;SDS011;6932;51.438;5.470;2023-03-03T09:54:51;16.97;;;8.27;;
13720;SDS011;6932;51.438;5.470;2023-03-03T10:00:04;17.20;;;9.07;;
13720;SDS011;6932;51.438;5.470;2023-03-03T10:02:50;17.17;;;9.27;;
13720;SDS011;6932;51.438;5.470;2023-03-03T10:06:07;16.27;;;9.23;;
13720;SDS011;6932;51.438;5.470;2023-03-03T10:21:20;16.77;;;9.20;;
13720;SDS011;6932;51.438;5.470;2023-03-03T10:30:20;15.83;;;8.50;;
13720;SDS011;6932;51.438;5.470;2023-03-03T10:33:10;15.27;;;8.77;;
13720;SDS011;6932;51.438;5.470;2023-03-03T10:51:22;14.00;;;7.33;;
13720;SDS011;6932;51.438;5.470;2023-03-03T11:00:26;13.97;;;7.40;;
13720;SDS011;6932;51.438;5.470;2023-03-03T11:12:40;14.00;;;7.00;;
13720;SDS011;6932;51.438;5.470;2023-03-03T11:18:24;13.37;;;7.50;;
13720;SDS011;6932;51.438;5.470;2023-03-03T11:27:14;14.33;;;8.30;;
13720;SDS011;6932;51.438;5.470;2023-03-03T11:30:33;13.73;;;7.73;;
13720;SDS011;6932;51.438;5.470;2023-03-03T11:33:11;14.20;;;8.00;;
13720;SDS011;6932;51.438;5.470;2023-03-03T11:36:38;13.27;;;8.00;;
13720;SDS011;6932;51.438;5.470;2023-03-03T11:39:14;13.90;;;7.57;;
13720;SDS011;6932;51.438;5.470;2023-03-03T11:45:02;12.07;;;6.73;;
13720;SDS011;6932;51.438;5.470;2023-03-03T11:47:44;13.63;;;6.90;;
13720;SDS011;6932;51.438;5.470;2023-03-03T11:50:30;12.87;;;7.27;;
13720;SDS011;6932;51.438;5.470;2023-03-03T11:56:13;14.43;;;7.73;;
13720;SDS011;6932;51.438;5.470;2023-03-03T12:04:54;14.10;;;7.40;;
13720;SDS011;6932;51.438;5.470;2023-03-03T12:10:33;13.60;;;7.67;;
13720;SDS011;6932;51.438;5.470;2023-03-03T12:22:07;13.37;;;7.47;;
13720;SDS011;6932;51.438;5.470;2023-03-03T12:35:49;14.50;;;7.20;;
13720;SDS011;6932;51.438;5.470;2023-03-03T12:47:02;14.00;;;6.97;;
13720;SDS011;6932;51.438;5.470;2023-03-03T12:52:38;12.60;;;7.00;;
13720;SDS011;6932;51.438;5.470;2023-03-03T12:55:15;12.17;;;6.60;;
13720;SDS011;6932;51.438;5.470;2023-03-03T12:58:14;11.20;;;6.43;;
13720;SDS011;6932;51.438;5.470;2023-03-03T13:00:52;12.53;;;6.80;;
13720;SDS011;6932;51.438;5.470;2023-03-03T13:03:42;11.53;;;6.60;;
13720;SDS011;6932;51.438;5.470;2023-03-03T13:06:45;13.00;;;7.10;;
13720;SDS011;6932;51.438;5.470;2023-03-03T13:21:03;12.03;;;6.93;;
13720;SDS011;6932;51.438;5.470;2023-03-03T13:23:39;11.40;;;6.83;;
13720;SDS011;6932;51.438;5.470;2023-03-03T13:26:46;12.43;;;7.07;;
13720;SDS011;6932;51.438;5.470;2023-03-03T13:29:42;11.53;;;6.20;;
13720;SDS011;6932;51.438;5.470;2023-03-03T13:32:18;11.87;;;6.33;;
13720;SDS011;6932;51.438;5.470;2023-03-03T13:37:41;11.20;;;6.23;;
13720;SDS011;6932;51.438;5.470;2023-03-03T13:40:18;11.27;;;6.80;;
13720;SDS011;6932;51.438;5.470;2023-03-03T13:51:36;10.33;;;5.60;;
13720;SDS011;6932;51.438;5.470;2023-03-03T13:57:18;11.50;;;5.77;;
13720;SDS011;6932;51.438;5.470;2023-03-03T14:06:04;10.17;;;5.50;;
13720;SDS011;6932;51.438;5.470;2023-03-03T14:20:09;9.67;;;5.40;;
13720;SDS011;6932;51.438;5.470;2023-03-03T14:23:12;9.47;;;5.07;;
13720;SDS011;6932;51.438;5.470;2023-03-03T14:26:08;10.17;;;5.13;;
13720;SDS011;6932;51.438;5.470;2023-03-03T14:28:38;9.60;;;5.03;;
13720;SDS011;6932;51.438;5.470;2023-03-03T14:33:45;9.27;;;5.10;;
13720;SDS011;6932;51.438;5.470;2023-03-03T14:37:09;9.03;;;4.90;;
13720;SDS011;6932;51.438;5.470;2023-03-03T14:47:56;8.33;;;4.30;;
13720;SDS011;6932;51.438;5.470;2023-03-03T14:50:43;9.13;;;4.40;;
13720;SDS011;6932;51.438;5.470;2023-03-03T14:53:34;7.77;;;4.30;;
13720;SDS011;6932;51.438;5.470;2023-03-03T14:58:52;8.13;;;4.27;;
13720;SDS011;6932;51.438;5.470;2023-03-03T15:01:35;8.17;;;4.63;;
13720;SDS011;6932;51.438;5.470;2023-03-03T15:11:52;8.20;;;4.60;;
13720;SDS011;6932;51.438;5.470;2023-03-03T15:14:26;7.47;;;4.10;;
13720;SDS011;6932;51.438;5.470;2023-03-03T15:17:14;8.40;;;4.53;;
13720;SDS011;6932;51.438;5.470;2023-03-03T15:22:35;7.20;;;4.20;;
13720;SDS011;6932;51.438;5.470;2023-03-03T15:28:54;8.13;;;4.30;;
13720;SDS011;6932;51.438;5.470;2023-03-03T15:34:44;7.63;;;4.23;;
13720;SDS011;6932;51.438;5.470;2023-03-03T15:45:44;6.50;;;3.73;;
13720;SDS011;6932;51.438;5.470;2023-03-03T15:48:50;7.07;;;4.00;;
13720;SDS011;6932;51.438;5.470;2023-03-03T15:51:56;7.47;;;3.80;;
13720;SDS011;6932;51.438;5.470;2023-03-03T15:57:45;6.93;;;3.80;;
13720;SDS011;6932;51.438;5.470;2023-03-03T16:03:21;5.37;;;3.10;;
13720;SDS011;6932;51.438;5.470;2023-03-03T16:08:30;4.93;;;3.17;;
13720;SDS011;6932;51.438;5.470;2023-03-03T16:11:33;6.20;;;3.07;;
13720;SDS011;6932;51.438;5.470;2023-03-03T16:28:01;5.50;;;3.40;;
13720;SDS011;6932;51.438;5.470;2023-03-03T16:33:21;5.37;;;3.20;;
13720;SDS011;6932;51.438;5.470;2023-03-03T16:36:12;5.67;;;3.20;;
13720;SDS011;6932;51.438;5.470;2023-03-03T16:39:01;6.60;;;3.20;;
13720;SDS011;6932;51.438;5.470;2023-03-03T16:41:46;6.33;;;3.27;;
13720;SDS011;6932;51.438;5.470;2023-03-03T16:44:56;6.90;;;3.60;;
13720;SDS011;6932;51.438;5.470;2023-03-03T16:53:49;5.13;;;3.20;;
13720;SDS011;6932;51.438;5.470;2023-03-03T16:59:15;6.23;;;3.33;;
13720;SDS011;6932;51.438;5.470;2023-03-03T17:02:11;4.47;;;2.80;;
13720;SDS011;6932;51.438;5.470;2023-03-03T17:11:00;5.37;;;2.80;;
13720;SDS011;6932;51.438;5.470;2023-03-03T17:17:00;4.53;;;2.60;;
13720;SDS011;6932;51.438;5.470;2023-03-03T17:40:07;5.73;;;2.40;;
13720;SDS011;6932;51.438;5.470;2023-03-03T17:45:33;3.47;;;2.30;;
13720;SDS011;6932;51.438;5.470;2023-03-03T18:00:28;6.83;;;2.20;;
13720;SDS011;6932;51.438;5.470;2023-03-03T18:09:06;4.87;;;2.50;;
13720;SDS011;6932;51.438;5.470;2023-03-03T18:15:50;3.67;;;2.43;;
13720;SDS011;6932;51.438;5.470;2023-03-03T18:23:47;5.60;;;2.43;;
13720;SDS011;6932;51.438;5.470;2023-03-03T18:42:43;3.03;;;2.07;;
13720;SDS011;6932;51.438;5.470;2023-03-03T18:48:03;4.13;;;2.10;;
13720;SDS011;6932;51.438;5.470;2023-03-03T18:50:44;4.43;;;2.20;;
13720;SDS011;6932;51.438;5.470;2023-03-03T18:53:25;4.37;;;1.93;;
13720;SDS011;6932;51.438;5.470;2023-03-03T18:55:59;4.77;;;2.17;;
13720;SDS011;6932;51.438;5.470;2023-03-03T19:09:08;4.00;;;2.00;;
13720;SDS011;6932;51.438;5.470;2023-03-03T19:11:49;5.00;;;2.17;;
13720;SDS011;6932;51.438;5.470;2023-03-03T19:22:49;3.20;;;1.60;;
13720;SDS011;6932;51.438;5.470;2023-03-03T19:25:27;3.43;;;1.70;;
13720;SDS011;6932;51.438;5.470;2023-03-03T19:33:52;4.00;;;1.90;;
13720;SDS011;6932;51.438;5.470;2023-03-03T19:36:42;3.63;;;1.90;;
13720;SDS011;6932;51.438;5.470;2023-03-03T19:54:20;3.60;;;1.90;;
13720;SDS011;6932;51.438;5.470;2023-03-03T19:57:30;3.27;;;1.63;;
13720;SDS011;6932;51.438;5.470;2023-03-03T20:07:02;3.83;;;1.60;;
13720;SDS011;6932;51.438;5.470;2023-03-03T20:21:19;4.83;;;1.70;;
13720;SDS011;6932;51.438;5.470;2023-03-03T20:24:17;4.97;;;2.40;;
13720;SDS011;6932;51.438;5.470;2023-03-03T20:33:41;7.17;;;2.37;;
13720;SDS011;6932;51.438;5.470;2023-03-03T20:40:09;5.27;;;2.30;;
13720;SDS011;6932;51.438;5.470;2023-03-03T20:51:55;9.17;;;2.50;;
13720;SDS011;6932;51.438;5.470;2023-03-03T21:06:06;4.27;;;2.20;;
13720;SDS011;6932;51.438;5.470;2023-03-03T21:08:46;5.37;;;2.57;;
13720;SDS011;6932;51.438;5.470;2023-03-03T21:11:19;4.13;;;2.13;;
13720;SDS011;6932;51.438;5.470;2023-03-03T21:13:55;7.40;;;2.70;;
13720;SDS011;6932;51.438;5.470;2023-03-03T21:18:54;7.10;;;2.80;;
13720;SDS011;6932;51.438;5.470;2023-03-03T21:21:22;6.67;;;2.50;;
13720;SDS011;6932;51.438;5.470;2023-03-03T21:23:50;7.83;;;3.00;;
13720;SDS011;6932;51.438;5.470;2023-03-03T21:26:42;7.87;;;3.13;;
13720;SDS011;6932;51.438;5.470;2023-03-03T21:29:25;6.47;;;3.00;;
13720;SDS011;6932;51.438;5.470;2023-03-03T21:31:56;8.73;;;3.20;;
13720;SDS011;6932;51.438;5.470;2023-03-03T21:37:12;10.10;;;3.80;;
13720;SDS011;6932;51.438;5.470;2023-03-03T21:42:55;6.57;;;2.90;;
13720;SDS011;6932;51.438;5.470;2023-03-03T21:45:23;9.40;;;2.70;;
13720;SDS011;6932;51.438;5.470;2023-03-03T21:47:51;8.43;;;3.10;;
13720;SDS011;6932;51.438;5.470;2023-03-03T21:50:19;9.57;;;2.93;;
13720;SDS011;6932;51.438;5.470;2023-03-03T21:52:45;11.77;;;2.90;;
13720;SDS011;6932;51.438;5.470;2023-03-03T21:55:12;7.67;;;2.50;;
13720;SDS011;6932;51.438;5.470;2023-03-03T21:57:37;7.63;;;2.70;;
13720;SDS011;6932;51.438;5.470;2023-03-03T22:00:06;7.97;;;2.47;;
13720;SDS011;6932;51.438;5.470;2023-03-03T22:02:34;9.53;;;2.80;;
13720;SDS011;6932;51.438;5.470;2023-03-03T22:05:00;10.83;;;2.70;;
13720;SDS011;6932;51.438;5.470;2023-03-03T22:07:27;8.43;;;2.83;;
13720;SDS011;6932;51.438;5.470;2023-03-03T22:09:54;10.87;;;2.90;;
13720;SDS011;6932;51.438;5.470;2023-03-03T22:12:19;10.13;;;3.00;;
13720;SDS011;6932;51.438;5.470;2023-03-03T22:14:45;8.77;;;2.90;;
13720;SDS011;6932;51.438;5.470;2023-03-03T22:17:11;6.07;;;2.77;;
13720;SDS011;6932;51.438;5.470;2023-03-03T22:19:36;9.93;;;3.10;;
13720;SDS011;6932;51.438;5.470;2023-03-03T22:22:02;9.43;;;3.00;;
13720;SDS011;6932;51.438;5.470;2023-03-03T22:24:29;10.13;;;3.23;;
13720;SDS011;6932;51.438;5.470;2023-03-03T22:26:55;9.13;;;3.07;;
13720;SDS011;6932;51.438;5.470;2023-03-03T22:29:21;9.93;;;3.20;;
13720;SDS011;6932;51.438;5.470;2023-03-03T22:31:49;8.83;;;2.97;;
13720;SDS011;6932;51.438;5.470;2023-03-03T22:34:15;10.10;;;2.97;;
13720;SDS011;6932;51.438;5.470;2023-03-03T22:36:41;7.10;;;2.60;;
13720;SDS011;6932;51.438;5.470;2023-03-03T22:39:07;10.10;;;3.10;;
13720;SDS011;6932;51.438;5.470;2023-03-03T22:41:33;9.70;;;2.93;;
13720;SDS011;6932;51.438;5.470;2023-03-03T22:43:58;10.07;;;3.00;;
13720;SDS011;6932;51.438;5.470;2023-03-03T22:46:24;9.57;;;2.93;;
13720;SDS011;6932;51.438;5.470;2023-03-03T22:48:50;5.80;;;2.23;;
13720;SDS011;6932;51.438;5.470;2023-03-03T22:51:16;8.37;;;2.60;;
13720;SDS011;6932;51.438;5.470;2023-03-03T22:53:45;7.13;;;2.70;;
13720;SDS011;6932;51.438;5.470;2023-03-03T22:56:11;7.97;;;2.50;;
13720;SDS011;6932;51.438;5.470;2023-03-03T22:58:37;10.00;;;2.53;;
13720;SDS011;6932;51.438;5.470;2023-03-03T23:01:03;10.57;;;3.03;;
13720;SDS011;6932;51.438;5.470;2023-03-03T23:03:29;8.30;;;2.60;;